createdAt,value
2023-07-29T00:01:59.374Z,100391.00
2023-07-29T00:04:26.712Z,100390.00
2023-07-29T00:06:53.981Z,100383.00
2023-07-29T00:09:21.177Z,100391.00
2023-07-29T00:11:48.346Z,100383.00
2023-07-29T00:14:15.516Z,100382.00
2023-07-29T00:16:43.922Z,100385.00
2023-07-29T00:19:11.152Z,100385.00
2023-07-29T00:21:38.676Z,100382.00
2023-07-29T00:24:06.047Z,100390.00
2023-07-29T00:26:33.676Z,100384.00
2023-07-29T00:29:00.841Z,100376.00
2023-07-29T00:31:27.805Z,100380.00
2023-07-29T00:33:55.130Z,100373.00
2023-07-29T00:36:22.346Z,100377.00
2023-07-29T00:38:49.549Z,100386.00
2023-07-29T00:41:16.996Z,100378.00
2023-07-29T00:43:44.182Z,100382.00
2023-07-29T00:46:14.041Z,100385.00
2023-07-29T00:48:41.506Z,100373.00
2023-07-29T00:51:09.026Z,100387.00
2023-07-29T00:53:36.353Z,100383.00
2023-07-29T00:56:03.633Z,100379.00
2023-07-29T00:58:30.431Z,100369.00
2023-07-29T01:00:58.072Z,100374.00
2023-07-29T01:03:24.981Z,100377.00
2023-07-29T01:06:24.751Z,100373.00
2023-07-29T01:09:04.003Z,100372.00
2023-07-29T01:12:23.230Z,100361.00
2023-07-29T01:15:03.413Z,100363.00
2023-07-29T01:17:37.078Z,100351.00
2023-07-29T01:20:14.623Z,100351.00
2023-07-29T01:22:43.140Z,100349.00
2023-07-29T01:25:10.326Z,100344.00
2023-07-29T01:27:37.074Z,100332.00
2023-07-29T01:30:05.447Z,100335.00
2023-07-29T01:32:54.499Z,100335.00
2023-07-29T01:36:04.219Z,100335.00
2023-07-29T01:38:36.044Z,100335.00
2023-07-29T01:41:04.418Z,100336.00
2023-07-29T01:43:32.607Z,100340.00
2023-07-29T01:46:01.127Z,100339.00
2023-07-29T01:48:31.505Z,100341.00
2023-07-29T01:50:58.820Z,100354.00
2023-07-29T01:53:26.060Z,100356.00
2023-07-29T01:55:53.367Z,100351.00
2023-07-29T01:58:20.574Z,100358.00
2023-07-29T02:00:47.795Z,100347.00
2023-07-29T02:03:15.188Z,100349.00
2023-07-29T02:05:44.677Z,100346.00
2023-07-29T02:08:12.129Z,100355.00
2023-07-29T02:10:39.498Z,100354.00
2023-07-29T02:13:06.728Z,100352.00
2023-07-29T02:15:33.899Z,100348.00
2023-07-29T02:18:02.470Z,100353.00
2023-07-29T02:20:29.271Z,100350.00
2023-07-29T02:22:56.448Z,100345.00
2023-07-29T02:25:23.668Z,100347.00
2023-07-29T02:27:50.872Z,100347.00
2023-07-29T02:30:18.106Z,100342.00
2023-07-29T02:32:45.105Z,100352.00
2023-07-29T02:35:12.879Z,100345.00
2023-07-29T02:37:40.112Z,100345.00
2023-07-29T02:40:07.780Z,100345.00
2023-07-29T02:42:34.568Z,100341.00
2023-07-29T02:45:01.754Z,100347.00
2023-07-29T02:47:28.995Z,100349.00
2023-07-29T02:49:56.327Z,100347.00
2023-07-29T02:52:23.120Z,100343.00
2023-07-29T02:54:50.349Z,100340.00
2023-07-29T02:57:18.497Z,100340.00
2023-07-29T02:59:46.400Z,100341.00
2023-07-29T03:02:13.209Z,100344.00
2023-07-29T03:04:40.383Z,100342.00
2023-07-29T03:07:07.599Z,100341.00
2023-07-29T03:09:35.176Z,100355.00
2023-07-29T03:12:02.340Z,100356.00
2023-07-29T03:14:29.129Z,100349.00
2023-07-29T03:16:56.366Z,100345.00
2023-07-29T03:19:23.564Z,100352.00
2023-07-29T03:21:51.058Z,100350.00
2023-07-29T03:24:18.275Z,100340.00
2023-07-29T03:26:46.843Z,100340.00
2023-07-29T03:29:14.165Z,100353.00
2023-07-29T03:31:41.369Z,100350.00
2023-07-29T03:34:08.571Z,100337.00
2023-07-29T03:36:36.038Z,100333.00
2023-07-29T03:39:05.281Z,100342.00
2023-07-29T03:41:32.440Z,100333.00
2023-07-29T03:43:59.581Z,100337.00
2023-07-29T03:46:27.013Z,100330.00
2023-07-29T03:48:54.205Z,100333.00
2023-07-29T03:51:21.942Z,100326.00
2023-07-29T03:53:48.704Z,100335.00
2023-07-29T03:56:15.893Z,100335.00
2023-07-29T03:58:44.829Z,100321.00
2023-07-29T04:01:11.658Z,100324.00
2023-07-29T04:03:38.908Z,100325.00
2023-07-29T04:06:06.163Z,100337.00
2023-07-29T04:08:33.367Z,100336.00
2023-07-29T04:11:00.556Z,100317.00
2023-07-29T04:13:27.412Z,100321.00
2023-07-29T04:15:54.646Z,100331.00
2023-07-29T04:18:21.473Z,100320.00
2023-07-29T04:20:48.645Z,100324.00
2023-07-29T04:23:15.422Z,100313.00
2023-07-29T04:25:42.556Z,100312.00
2023-07-29T04:28:09.754Z,100317.00
2023-07-29T04:30:37.021Z,100308.00
2023-07-29T04:33:04.681Z,100300.00
2023-07-29T04:35:31.506Z,100317.00
2023-07-29T04:37:58.686Z,100315.00
2023-07-29T04:40:25.480Z,100318.00
2023-07-29T04:42:52.874Z,100318.00
2023-07-29T04:45:20.149Z,100313.00
2023-07-29T04:47:47.457Z,100330.00
2023-07-29T04:50:14.663Z,100322.00
2023-07-29T04:52:41.905Z,100332.00
2023-07-29T04:55:08.883Z,100318.00
2023-07-29T04:57:35.652Z,100324.00
2023-07-29T05:00:03.902Z,100316.00
2023-07-29T05:02:30.717Z,100318.00
2023-07-29T05:04:57.969Z,100321.00
2023-07-29T05:07:24.832Z,100317.00
2023-07-29T05:09:51.630Z,100323.00
2023-07-29T05:12:18.367Z,100317.00
2023-07-29T05:14:45.333Z,100315.00
2023-07-29T05:17:12.551Z,100320.00
2023-07-29T05:19:39.712Z,100321.00
2023-07-29T05:22:07.012Z,100320.00
2023-07-29T05:24:34.178Z,100314.00
2023-07-29T05:27:01.377Z,100304.00
2023-07-29T05:29:28.597Z,100314.00
2023-07-29T05:31:55.354Z,100306.00
2023-07-29T05:34:22.574Z,100308.00
2023-07-29T05:36:49.754Z,100313.00
2023-07-29T05:39:16.544Z,100313.00
2023-07-29T05:41:43.280Z,100318.00
2023-07-29T05:44:10.998Z,100322.00
2023-07-29T05:46:38.466Z,100330.00
2023-07-29T05:49:05.462Z,100326.00
2023-07-29T05:51:33.716Z,100323.00
2023-07-29T05:54:00.908Z,100318.00
2023-07-29T05:56:28.094Z,100321.00
2023-07-29T05:58:55.278Z,100334.00
2023-07-29T06:01:22.933Z,100315.00
2023-07-29T06:03:50.436Z,100308.00
2023-07-29T06:06:17.690Z,100306.00
2023-07-29T06:08:44.915Z,100299.00
2023-07-29T06:11:12.076Z,100293.00
2023-07-29T06:13:39.276Z,100295.00
2023-07-29T06:16:06.434Z,100282.00
2023-07-29T06:18:33.592Z,100278.00
2023-07-29T06:21:00.438Z,100283.00
2023-07-29T06:23:27.251Z,100279.00
2023-07-29T06:25:54.443Z,100272.00
2023-07-29T06:28:21.278Z,100284.00
2023-07-29T06:30:48.490Z,100285.00
2023-07-29T06:33:15.697Z,100288.00
2023-07-29T06:35:43.065Z,100285.00
2023-07-29T06:38:10.412Z,100277.00
2023-07-29T06:40:37.165Z,100288.00
2023-07-29T06:43:04.339Z,100292.00
2023-07-29T06:45:31.590Z,100293.00
2023-07-29T06:47:58.560Z,100294.00
2023-07-29T06:50:25.947Z,100295.00
2023-07-29T06:52:53.117Z,100294.00
2023-07-29T06:55:20.304Z,100303.00
2023-07-29T06:57:47.333Z,100304.00
2023-07-29T07:00:14.650Z,100299.00
2023-07-29T07:02:41.528Z,100309.00
2023-07-29T07:05:08.806Z,100308.00
2023-07-29T07:07:36.016Z,100312.00
2023-07-29T07:10:03.385Z,100313.00
2023-07-29T07:12:30.572Z,100306.00
2023-07-29T07:14:57.754Z,100311.00
2023-07-29T07:17:24.928Z,100305.00
2023-07-29T07:19:52.255Z,100316.00
2023-07-29T07:22:19.434Z,100308.00
2023-07-29T07:24:46.378Z,100313.00
2023-07-29T07:27:13.602Z,100322.00
2023-07-29T07:29:40.863Z,100307.00
2023-07-29T07:32:07.871Z,100303.00
2023-07-29T07:34:35.627Z,100310.00
2023-07-29T07:37:02.497Z,100310.00
2023-07-29T07:39:29.644Z,100312.00
2023-07-29T07:41:56.429Z,100307.00
2023-07-29T07:44:23.250Z,100294.00
2023-07-29T07:46:50.422Z,100303.00
2023-07-29T07:49:17.632Z,100296.00
2023-07-29T07:51:45.452Z,100296.00
2023-07-29T07:54:12.630Z,100288.00
2023-07-29T07:56:40.057Z,100289.00
2023-07-29T07:59:07.360Z,100282.00
2023-07-29T08:01:38.909Z,100289.00
2023-07-29T08:04:06.413Z,100277.00
2023-07-29T08:06:34.890Z,100283.00
2023-07-29T08:09:02.576Z,100283.00
2023-07-29T08:11:29.400Z,100274.00
2023-07-29T08:13:56.575Z,100288.00
2023-07-29T08:16:23.551Z,100282.00
2023-07-29T08:18:50.801Z,100276.00
2023-07-29T08:21:17.986Z,100282.00
2023-07-29T08:23:45.159Z,100287.00
2023-07-29T08:26:12.414Z,100273.00
2023-07-29T08:28:40.964Z,100283.00
2023-07-29T08:31:08.810Z,100275.00
2023-07-29T08:33:35.926Z,100279.00
2023-07-29T08:36:04.237Z,100274.00
2023-07-29T08:38:31.474Z,100270.00
2023-07-29T08:41:21.076Z,100269.00
2023-07-29T08:44:00.503Z,100267.00
2023-07-29T08:46:29.378Z,100271.00
2023-07-29T08:48:56.988Z,100275.00
2023-07-29T08:51:25.940Z,100266.00
2023-07-29T08:53:53.550Z,100263.00
2023-07-29T08:56:20.942Z,100272.00
2023-07-29T08:58:49.143Z,100259.00
2023-07-29T09:01:17.178Z,100258.00
2023-07-29T09:03:44.514Z,100269.00
2023-07-29T09:06:12.961Z,100267.00
2023-07-29T09:08:40.065Z,100258.00
2023-07-29T09:11:08.169Z,100263.00
2023-07-29T09:13:35.886Z,100265.00
2023-07-29T09:16:02.761Z,100277.00
2023-07-29T09:18:29.998Z,100262.00
2023-07-29T09:21:03.849Z,100262.00
2023-07-29T09:23:42.210Z,100247.00
2023-07-29T09:26:09.278Z,100249.00
2023-07-29T09:28:38.948Z,100245.00
2023-07-29T09:31:06.820Z,100247.00
2023-07-29T09:33:37.998Z,100242.00
2023-07-29T09:36:11.526Z,100239.00
2023-07-29T09:38:39.359Z,100244.00
2023-07-29T09:41:06.638Z,100233.00
2023-07-29T09:43:35.442Z,100227.00
2023-07-29T09:46:09.453Z,100230.00
2023-07-29T09:48:38.763Z,100227.00
2023-07-29T09:51:16.205Z,100237.00
2023-07-29T09:53:47.550Z,100230.00
2023-07-29T09:56:15.971Z,100224.00
2023-07-29T09:58:46.614Z,100213.00
2023-07-29T10:01:15.069Z,100221.00
2023-07-29T10:03:43.433Z,100208.00
2023-07-29T10:06:11.453Z,100216.00
2023-07-29T10:08:40.301Z,100211.00
2023-07-29T10:11:09.347Z,100215.00
2023-07-29T10:13:37.507Z,100217.00
2023-07-29T10:16:06.047Z,100203.00
2023-07-29T10:18:34.497Z,100191.00
2023-07-29T10:21:03.210Z,100193.00
2023-07-29T10:23:43.358Z,100197.00
2023-07-29T10:26:12.625Z,100202.00
2023-07-29T10:28:46.352Z,100195.00
2023-07-29T10:31:14.280Z,100187.00
2023-07-29T10:33:41.360Z,100183.00
2023-07-29T10:36:09.185Z,100182.00
2023-07-29T10:38:36.541Z,100190.00
2023-07-29T10:41:03.284Z,100174.00
2023-07-29T10:43:41.121Z,100173.00
2023-07-29T10:46:23.605Z,100175.00
2023-07-29T10:48:58.341Z,100165.00
2023-07-29T10:51:36.328Z,100149.00
2023-07-29T10:54:12.681Z,100139.00
2023-07-29T10:56:47.890Z,100144.00
2023-07-29T10:59:18.597Z,100153.00
2023-07-29T11:01:59.765Z,100157.00
2023-07-29T11:04:34.753Z,100158.00
2023-07-29T11:07:11.485Z,100164.00
2023-07-29T11:10:07.866Z,100153.00
2023-07-29T11:12:52.893Z,100148.00
2023-07-29T11:15:27.190Z,100147.00
2023-07-29T11:17:55.284Z,100161.00
2023-07-29T11:20:34.477Z,100206.00
2023-07-29T11:23:04.631Z,100220.00
2023-07-29T11:25:34.497Z,100234.00
2023-07-29T11:28:04.864Z,100237.00
2023-07-29T11:30:34.829Z,100221.00
2023-07-29T11:33:02.399Z,100218.00
2023-07-29T11:35:29.640Z,100215.00
2023-07-29T11:37:58.203Z,100208.00
2023-07-29T11:40:26.047Z,100197.00
2023-07-29T11:42:53.951Z,100201.00
2023-07-29T11:45:25.668Z,100193.00
2023-07-29T11:47:57.090Z,100198.00
2023-07-29T11:50:24.523Z,100191.00
2023-07-29T11:52:51.318Z,100186.00
2023-07-29T11:55:20.175Z,100182.00
2023-07-29T11:57:53.177Z,100179.00
2023-07-29T12:00:21.840Z,100178.00
2023-07-29T12:02:50.952Z,100171.00
2023-07-29T12:05:22.161Z,100161.00
2023-07-29T12:07:49.189Z,100158.00
2023-07-29T12:10:16.515Z,100169.00
2023-07-29T12:12:48.501Z,100168.00
2023-07-29T12:15:25.991Z,100171.00
2023-07-29T12:17:58.144Z,100173.00
2023-07-29T12:20:26.826Z,100177.00
2023-07-29T12:22:58.936Z,100181.00
2023-07-29T12:25:28.034Z,100182.00
2023-07-29T12:27:55.374Z,100187.00
2023-07-29T12:30:24.149Z,100171.00
2023-07-29T12:32:51.421Z,100169.00
2023-07-29T12:35:18.722Z,100174.00
2023-07-29T12:37:45.917Z,100185.00
2023-07-29T12:40:24.134Z,100189.00
2023-07-29T12:42:52.707Z,100180.00
2023-07-29T12:45:20.257Z,100175.00
2023-07-29T12:47:47.060Z,100163.00
2023-07-29T12:50:14.375Z,100156.00
2023-07-29T12:52:41.170Z,100155.00
2023-07-29T12:55:09.928Z,100158.00
2023-07-29T12:57:37.352Z,100143.00
2023-07-29T13:00:05.328Z,100138.00
2023-07-29T13:02:33.174Z,100144.00
2023-07-29T13:05:00.519Z,100149.00
2023-07-29T13:07:27.275Z,100144.00
2023-07-29T13:09:54.451Z,100146.00
2023-07-29T13:12:21.700Z,100146.00
2023-07-29T13:14:48.861Z,100151.00
2023-07-29T13:17:16.050Z,100162.00
2023-07-29T13:19:43.849Z,100164.00
2023-07-29T13:22:11.058Z,100165.00
2023-07-29T13:24:38.439Z,100175.00
2023-07-29T13:27:07.068Z,100175.00
2023-07-29T13:29:34.238Z,100170.00
2023-07-29T13:32:01.451Z,100172.00
2023-07-29T13:34:28.771Z,100167.00
2023-07-29T13:36:55.985Z,100174.00
2023-07-29T13:39:23.213Z,100174.00
2023-07-29T13:41:50.415Z,100160.00
2023-07-29T13:44:17.565Z,100152.00
2023-07-29T13:46:44.741Z,100150.00
2023-07-29T13:49:12.448Z,100152.00
2023-07-29T13:51:39.811Z,100146.00
2023-07-29T13:54:06.966Z,100141.00
2023-07-29T13:56:34.355Z,100139.00
2023-07-29T13:59:01.730Z,100143.00
2023-07-29T14:01:28.534Z,100137.00
2023-07-29T14:03:55.722Z,100131.00
2023-07-29T14:06:31.698Z,100128.00
2023-07-29T14:09:10.060Z,100138.00
2023-07-29T14:11:37.523Z,100140.00
2023-07-29T14:14:04.856Z,100131.00
2023-07-29T14:16:32.033Z,100126.00
2023-07-29T14:18:58.918Z,100130.00
2023-07-29T14:21:26.099Z,100128.00
2023-07-29T14:23:54.368Z,100127.00
2023-07-29T14:26:21.613Z,100125.00
2023-07-29T14:28:48.771Z,100123.00
2023-07-29T14:31:15.638Z,100124.00
2023-07-29T14:33:42.806Z,100119.00
2023-07-29T14:36:09.547Z,100108.00
2023-07-29T14:38:37.717Z,100113.00
2023-07-29T14:41:05.414Z,100112.00
2023-07-29T14:43:32.775Z,100114.00
2023-07-29T14:46:00.051Z,100125.00
2023-07-29T14:48:26.869Z,100124.00
2023-07-29T14:50:54.190Z,100135.00
2023-07-29T14:53:21.380Z,100142.00
2023-07-29T14:55:48.622Z,100147.00
2023-07-29T14:58:15.823Z,100149.00
2023-07-29T15:00:43.013Z,100148.00
2023-07-29T15:03:10.319Z,100143.00
2023-07-29T15:05:37.623Z,100133.00
2023-07-29T15:08:04.459Z,100141.00
2023-07-29T15:10:31.203Z,100132.00
2023-07-29T15:12:58.426Z,100134.00
2023-07-29T15:15:25.656Z,100145.00
2023-07-29T15:17:52.876Z,100155.00
2023-07-29T15:20:20.198Z,100160.00
2023-07-29T15:22:47.368Z,100157.00
2023-07-29T15:25:14.598Z,100147.00
2023-07-29T15:27:41.829Z,100150.00
2023-07-29T15:30:09.310Z,100149.00
2023-07-29T15:32:36.564Z,100161.00
2023-07-29T15:35:03.934Z,100160.00
2023-07-29T15:37:31.132Z,100172.00
2023-07-29T15:39:58.381Z,100185.00
2023-07-29T15:42:25.708Z,100201.00
2023-07-29T15:44:53.785Z,100200.00
2023-07-29T15:47:20.922Z,100196.00
2023-07-29T15:49:48.167Z,100184.00
2023-07-29T15:52:15.920Z,100183.00
2023-07-29T15:54:44.118Z,100176.00
2023-07-29T15:57:11.702Z,100169.00
2023-07-29T15:59:38.911Z,100174.00
2023-07-29T16:02:06.590Z,100177.00
2023-07-29T16:04:33.397Z,100195.00
2023-07-29T16:07:00.161Z,100200.00
2023-07-29T16:09:27.602Z,100205.00
2023-07-29T16:11:54.447Z,100199.00
2023-07-29T16:14:21.224Z,100186.00
2023-07-29T16:16:49.166Z,100191.00
2023-07-29T16:19:25.849Z,100185.00
2023-07-29T16:21:53.444Z,100181.00
2023-07-29T16:24:20.980Z,100193.00
2023-07-29T16:26:47.976Z,100205.00
2023-07-29T16:29:15.552Z,100192.00
2023-07-29T16:31:42.746Z,100189.00
2023-07-29T16:34:10.486Z,100192.00
2023-07-29T16:36:37.878Z,100214.00
2023-07-29T16:39:04.889Z,100205.00
2023-07-29T16:42:02.857Z,100210.00
2023-07-29T16:44:18.921Z,100208.00
2023-07-29T16:46:46.523Z,100201.00
2023-07-29T16:49:21.749Z,100203.00
2023-07-29T16:51:51.392Z,100201.00
2023-07-29T16:54:20.118Z,100200.00
2023-07-29T16:56:50.173Z,100206.00
2023-07-29T16:59:17.664Z,100215.00
2023-07-29T17:01:44.967Z,100211.00
2023-07-29T17:04:12.201Z,100219.00
2023-07-29T17:06:39.204Z,100214.00
2023-07-29T17:09:07.410Z,100212.00
2023-07-29T17:11:34.246Z,100214.00
2023-07-29T17:14:01.492Z,100223.00
2023-07-29T17:16:28.726Z,100211.00
2023-07-29T17:18:55.928Z,100207.00
2023-07-29T17:21:22.691Z,100217.00
2023-07-29T17:23:49.842Z,100219.00
2023-07-29T17:26:17.000Z,100216.00
2023-07-29T17:28:45.307Z,100217.00
2023-07-29T17:31:12.476Z,100221.00
2023-07-29T17:33:39.515Z,100207.00
2023-07-29T17:36:07.281Z,100220.00
2023-07-29T17:38:34.437Z,100218.00
2023-07-29T17:41:03.326Z,100223.00
2023-07-29T17:43:30.549Z,100213.00
2023-07-29T17:45:57.350Z,100218.00
2023-07-29T17:48:24.665Z,100215.00
2023-07-29T17:50:51.484Z,100202.00
2023-07-29T17:53:18.810Z,100208.00
2023-07-29T17:55:45.969Z,100218.00
2023-07-29T17:58:13.636Z,100208.00
2023-07-29T18:00:41.103Z,100208.00
2023-07-29T18:03:08.483Z,100220.00
2023-07-29T18:05:36.577Z,100226.00
2023-07-29T18:08:03.880Z,100215.00
2023-07-29T18:10:32.082Z,100212.00
2023-07-29T18:13:00.002Z,100213.00
2023-07-29T18:15:27.005Z,100208.00
2023-07-29T18:17:54.394Z,100205.00
2023-07-29T18:20:21.822Z,100198.00
2023-07-29T18:22:49.620Z,100210.00
2023-07-29T18:25:17.122Z,100216.00
2023-07-29T18:27:44.358Z,100215.00
2023-07-29T18:30:14.417Z,100214.00
2023-07-29T18:32:41.263Z,100217.00
2023-07-29T18:35:10.051Z,100222.00
2023-07-29T18:37:37.327Z,100229.00
2023-07-29T18:40:04.783Z,100233.00
2023-07-29T18:42:31.685Z,100244.00
2023-07-29T18:44:58.842Z,100250.00
2023-07-29T18:47:26.030Z,100249.00
2023-07-29T18:49:54.028Z,100259.00
2023-07-29T18:52:20.828Z,100256.00
2023-07-29T18:54:47.998Z,100261.00
2023-07-29T18:57:15.215Z,100276.00
2023-07-29T18:59:42.382Z,100271.00
2023-07-29T19:02:09.248Z,100278.00
2023-07-29T19:04:36.673Z,100275.00
2023-07-29T19:07:03.654Z,100286.00
2023-07-29T19:09:30.829Z,100285.00
2023-07-29T19:11:57.991Z,100288.00
2023-07-29T19:14:24.929Z,100297.00
2023-07-29T19:16:52.242Z,100289.00
2023-07-29T19:19:19.064Z,100287.00
2023-07-29T19:21:45.828Z,100290.00
2023-07-29T19:24:12.974Z,100295.00
2023-07-29T19:26:40.072Z,100294.00
2023-07-29T19:29:07.502Z,100290.00
2023-07-29T19:31:34.713Z,100295.00
2023-07-29T19:34:01.531Z,100297.00
2023-07-29T19:36:33.170Z,100288.00
2023-07-29T19:39:00.201Z,100295.00
2023-07-29T19:41:28.393Z,100301.00
2023-07-29T19:44:00.503Z,100291.00
2023-07-29T19:46:38.122Z,100298.00
2023-07-29T19:49:06.628Z,100306.00
2023-07-29T19:51:33.400Z,100297.00
2023-07-29T19:54:00.554Z,100312.00
2023-07-29T19:56:27.332Z,100304.00
2023-07-29T19:58:54.519Z,100309.00
2023-07-29T20:01:21.348Z,100314.00
2023-07-29T20:03:48.294Z,100310.00
2023-07-29T20:06:15.078Z,100320.00
2023-07-29T20:08:43.472Z,100306.00
2023-07-29T20:11:10.664Z,100320.00
2023-07-29T20:13:37.459Z,100322.00
2023-07-29T20:16:04.763Z,100331.00
2023-07-29T20:18:31.972Z,100320.00
2023-07-29T20:20:59.196Z,100325.00
2023-07-29T20:23:26.500Z,100323.00
2023-07-29T20:25:53.249Z,100324.00
2023-07-29T20:28:22.206Z,100326.00
2023-07-29T20:30:59.146Z,100332.00
2023-07-29T20:33:27.188Z,100330.00
2023-07-29T20:35:59.791Z,100334.00
2023-07-29T20:38:27.320Z,100333.00
2023-07-29T20:40:56.725Z,100332.00
2023-07-29T20:43:24.779Z,100335.00
2023-07-29T20:45:55.503Z,100335.00
2023-07-29T20:48:22.796Z,100335.00
2023-07-29T20:50:50.043Z,100320.00
2023-07-29T20:53:19.732Z,100318.00
2023-07-29T20:55:46.994Z,100320.00
2023-07-29T20:58:14.427Z,100316.00
2023-07-29T21:00:41.201Z,100323.00
2023-07-29T21:03:08.500Z,100324.00
2023-07-29T21:05:35.788Z,100319.00
2023-07-29T21:08:03.012Z,100317.00
2023-07-29T21:10:31.554Z,100315.00
2023-07-29T21:12:58.335Z,100308.00
2023-07-29T21:15:25.546Z,100321.00
2023-07-29T21:17:52.384Z,100325.00
2023-07-29T21:20:19.775Z,100320.00
2023-07-29T21:22:46.586Z,100322.00
2023-07-29T21:25:13.776Z,100315.00
2023-07-29T21:27:40.547Z,100326.00
2023-07-29T21:30:08.394Z,100324.00
2023-07-29T21:32:35.182Z,100323.00
2023-07-29T21:35:02.465Z,100333.00
2023-07-29T21:37:35.725Z,100338.00
2023-07-29T21:40:04.306Z,100333.00
2023-07-29T21:42:32.867Z,100317.00
2023-07-29T21:45:00.150Z,100335.00
2023-07-29T21:47:27.020Z,100335.00
2023-07-29T21:49:55.154Z,100339.00
2023-07-29T21:52:22.524Z,100348.00
2023-07-29T21:54:50.088Z,100364.00
2023-07-29T21:57:17.554Z,100357.00
2023-07-29T21:59:44.725Z,100350.00
2023-07-29T22:02:12.116Z,100359.00
2023-07-29T22:04:39.667Z,100354.00
2023-07-29T22:07:07.196Z,100349.00
2023-07-29T22:09:34.513Z,100346.00
2023-07-29T22:12:01.433Z,100346.00
2023-07-29T22:14:28.802Z,100342.00
2023-07-29T22:16:55.632Z,100326.00
2023-07-29T22:19:22.788Z,100336.00
2023-07-29T22:21:52.605Z,100343.00
2023-07-29T22:24:20.412Z,100347.00
2023-07-29T22:26:47.997Z,100344.00
2023-07-29T22:29:15.546Z,100340.00
2023-07-29T22:31:42.801Z,100341.00
2023-07-29T22:34:10.032Z,100343.00
2023-07-29T22:36:36.777Z,100353.00
2023-07-29T22:39:04.041Z,100350.00
2023-07-29T22:41:30.824Z,100344.00
2023-07-29T22:43:58.031Z,100345.00
2023-07-29T22:46:24.818Z,100351.00
2023-07-29T22:48:51.788Z,100339.00
2023-07-29T22:51:18.564Z,100348.00
2023-07-29T22:53:45.317Z,100335.00
2023-07-29T22:56:12.742Z,100350.00
2023-07-29T22:58:40.008Z,100349.00
2023-07-29T23:01:07.231Z,100355.00
2023-07-29T23:03:34.567Z,100349.00
2023-07-29T23:06:01.539Z,100354.00
2023-07-29T23:08:28.789Z,100356.00
2023-07-29T23:10:55.713Z,100357.00
2023-07-29T23:13:22.902Z,100357.00
2023-07-29T23:15:52.282Z,100368.00
2023-07-29T23:18:19.239Z,100373.00
2023-07-29T23:20:46.416Z,100370.00
2023-07-29T23:23:13.576Z,100368.00
2023-07-29T23:25:40.747Z,100371.00
2023-07-29T23:28:07.549Z,100383.00
2023-07-29T23:30:34.771Z,100374.00
2023-07-29T23:33:02.005Z,100388.00
2023-07-29T23:35:28.924Z,100382.00
2023-07-29T23:37:56.259Z,100393.00
2023-07-29T23:40:23.179Z,100381.00
2023-07-29T23:42:50.344Z,100382.00
2023-07-29T23:45:17.610Z,100381.00
2023-07-29T23:47:44.966Z,100375.00
2023-07-29T23:50:12.255Z,100389.00
2023-07-29T23:52:39.037Z,100381.00
2023-07-29T23:55:06.668Z,100380.00
2023-07-29T23:57:33.415Z,100384.00
